createdAt,value
2018-10-12T00:00:22.283Z,39.13
2018-10-12T00:02:52.041Z,39.40
2018-10-12T00:05:21.645Z,38.92
2018-10-12T00:07:51.525Z,36.68
2018-10-12T00:10:21.234Z,38.67
2018-10-12T00:12:50.885Z,36.45
2018-10-12T00:15:20.569Z,37.90
2018-10-12T00:17:50.255Z,36.50
2018-10-12T00:20:20.028Z,36.30
2018-10-12T00:22:49.605Z,35.90
2018-10-12T00:25:19.306Z,35.38
2018-10-12T00:27:49.229Z,34.98
2018-10-12T00:30:18.815Z,34.95
2018-10-12T00:32:48.469Z,35.85
2018-10-12T00:35:18.093Z,34.60
2018-10-12T00:37:47.824Z,33.28
2018-10-12T00:40:17.557Z,33.30
2018-10-12T00:42:48.493Z,32.88
2018-10-12T00:45:19.185Z,33.90
2018-10-12T00:47:53.925Z,33.25
2018-10-12T00:50:23.664Z,31.20
2018-10-12T00:52:53.218Z,32.28
2018-10-12T00:55:23.998Z,31.57
2018-10-12T00:57:53.553Z,31.97
2018-10-12T01:00:24.053Z,31.10
2018-10-12T01:02:53.669Z,31.25
2018-10-12T01:05:23.350Z,30.55
2018-10-12T01:07:53.013Z,30.92
2018-10-12T01:10:22.886Z,30.08
2018-10-12T01:12:52.516Z,30.32
2018-10-12T01:15:22.301Z,29.50
2018-10-12T01:17:52.021Z,29.32
2018-10-12T01:20:21.656Z,29.42
2018-10-12T01:22:51.466Z,28.75
2018-10-12T01:25:21.189Z,29.42
2018-10-12T01:27:50.917Z,29.23
2018-10-12T01:30:20.590Z,27.15
2018-10-12T01:32:55.450Z,26.77
2018-10-12T01:35:25.161Z,27.25
2018-10-12T01:37:54.862Z,28.23
2018-10-12T01:40:24.546Z,27.75
2018-10-12T01:42:54.233Z,26.27
2018-10-12T01:45:23.935Z,26.73
2018-10-12T01:47:53.709Z,27.05
2018-10-12T01:50:23.377Z,26.27
2018-10-12T01:52:53.043Z,26.25
2018-10-12T01:55:22.764Z,26.02
2018-10-12T01:57:52.373Z,24.82
2018-10-12T02:00:21.967Z,25.10
2018-10-12T02:02:51.609Z,24.92
2018-10-12T02:05:21.313Z,24.67
2018-10-12T02:07:51.027Z,25.15
2018-10-12T02:10:21.078Z,24.82
2018-10-12T02:12:50.752Z,23.45
2018-10-12T02:15:20.429Z,24.82
2018-10-12T02:17:50.099Z,23.10
2018-10-12T02:20:19.669Z,24.67
2018-10-12T02:22:49.388Z,23.42
2018-10-12T02:25:19.137Z,23.15
2018-10-12T02:27:48.794Z,22.67
2018-10-12T02:30:18.523Z,23.25
2018-10-12T02:32:48.241Z,22.95
2018-10-12T02:35:18.010Z,23.07
2018-10-12T02:37:47.621Z,22.20
2018-10-12T02:40:17.293Z,21.65
2018-10-12T02:42:46.973Z,21.95
2018-10-12T02:45:16.654Z,22.27
2018-10-12T02:47:46.334Z,21.77
2018-10-12T02:50:16.094Z,21.37
2018-10-12T02:52:45.665Z,21.23
2018-10-12T02:55:15.413Z,22.27
2018-10-12T02:57:45.138Z,21.15
2018-10-12T03:00:14.785Z,20.90
2018-10-12T03:02:44.573Z,20.85
2018-10-12T03:05:14.141Z,21.05
2018-10-12T03:07:43.909Z,21.68
2018-10-12T03:10:13.598Z,21.50
2018-10-12T03:12:43.189Z,20.80
2018-10-12T03:15:12.710Z,20.55
2018-10-12T03:17:42.369Z,20.48
2018-10-12T03:20:12.017Z,20.85
2018-10-12T03:22:41.691Z,19.45
2018-10-12T03:25:11.486Z,20.50
2018-10-12T03:27:52.270Z,19.62
2018-10-12T03:30:21.966Z,20.12
2018-10-12T03:32:51.647Z,19.92
2018-10-12T03:35:21.286Z,20.97
2018-10-12T03:37:50.894Z,20.37
2018-10-12T03:40:20.667Z,19.17
2018-10-12T03:42:50.410Z,20.48
2018-10-12T03:45:20.115Z,20.10
2018-10-12T03:47:49.685Z,19.67
2018-10-12T03:50:19.390Z,19.87
2018-10-12T03:52:49.137Z,19.60
2018-10-12T03:55:18.831Z,19.23
2018-10-12T03:57:48.489Z,19.55
2018-10-12T04:00:18.186Z,19.12
2018-10-12T04:02:47.892Z,19.30
2018-10-12T04:05:17.577Z,18.77
2018-10-12T04:07:47.278Z,18.98
2018-10-12T04:10:16.958Z,18.35
2018-10-12T04:12:46.802Z,18.65
2018-10-12T04:15:16.510Z,18.10
2018-10-12T04:17:46.082Z,18.20
2018-10-12T04:20:15.828Z,18.25
2018-10-12T04:22:45.654Z,17.70
2018-10-12T04:25:15.330Z,17.98
2018-10-12T04:27:45.001Z,16.82
2018-10-12T04:30:14.689Z,17.37
2018-10-12T04:32:44.378Z,17.82
2018-10-12T04:35:14.191Z,17.45
2018-10-12T04:37:44.010Z,18.40
2018-10-12T04:41:28.591Z,17.45
2018-10-12T04:43:59.648Z,16.75
2018-10-12T04:46:42.112Z,17.65
2018-10-12T04:49:14.188Z,15.85
2018-10-12T04:51:55.056Z,17.25
2018-10-12T04:54:24.981Z,17.65
2018-10-12T04:56:54.631Z,16.50
2018-10-12T04:59:24.402Z,17.32
2018-10-12T05:01:53.978Z,17.42
2018-10-12T05:04:23.742Z,20.80
2018-10-12T05:06:53.399Z,22.48
2018-10-12T05:09:23.101Z,20.62
2018-10-12T05:11:52.654Z,20.88
2018-10-12T05:14:22.392Z,21.23
2018-10-12T05:16:52.116Z,24.50
2018-10-12T05:19:21.755Z,25.02
2018-10-12T05:21:51.454Z,29.42
2018-10-12T05:24:21.117Z,29.45
2018-10-12T05:26:50.825Z,28.67
2018-10-12T05:29:20.565Z,30.90
2018-10-12T05:31:50.260Z,34.13
2018-10-12T05:34:19.911Z,47.33
2018-10-12T05:36:49.610Z,50.60
2018-10-12T05:39:19.362Z,47.05
2018-10-12T05:41:49.021Z,59.05
2018-10-12T05:44:18.682Z,39.38
2018-10-12T05:46:48.418Z,34.67
2018-10-12T05:49:29.199Z,34.40
2018-10-12T05:51:58.893Z,33.28
2018-10-12T05:54:28.575Z,33.95
2018-10-12T05:56:58.122Z,31.42
2018-10-12T05:59:27.717Z,32.03
2018-10-12T06:01:57.265Z,30.65
2018-10-12T06:04:26.902Z,27.50
2018-10-12T06:06:56.461Z,30.62
2018-10-12T06:09:26.143Z,27.80
2018-10-12T06:11:55.706Z,28.00
2018-10-12T06:14:25.470Z,28.17
2018-10-12T06:16:55.129Z,29.05
2018-10-12T06:19:24.754Z,28.38
2018-10-12T06:21:54.369Z,29.23
2018-10-12T06:24:24.100Z,28.07
2018-10-12T06:26:54.134Z,44.25
2018-10-12T06:29:23.725Z,31.95
2018-10-12T06:31:53.349Z,32.13
2018-10-12T06:34:23.137Z,32.45
2018-10-12T06:36:52.621Z,36.17
2018-10-12T06:39:22.294Z,32.23
2018-10-12T06:41:52.091Z,34.25
2018-10-12T06:44:21.705Z,31.95
2018-10-12T06:46:51.470Z,40.75
2018-10-12T06:49:21.262Z,38.40
2018-10-12T06:51:51.002Z,33.48
2018-10-12T06:54:20.753Z,46.58
2018-10-12T06:56:50.455Z,47.23
2018-10-12T06:59:20.183Z,34.88
2018-10-12T07:01:49.802Z,46.28
2018-10-12T07:04:19.526Z,46.80
2018-10-12T07:06:49.205Z,59.40
2018-10-12T07:09:18.985Z,40.20
2018-10-12T07:11:49.150Z,45.75
2018-10-12T07:14:18.855Z,45.88
2018-10-12T07:16:48.556Z,57.80
2018-10-12T07:19:18.145Z,48.02
2018-10-12T07:21:47.769Z,54.05
2018-10-12T07:24:17.479Z,50.30
2018-10-12T07:26:47.250Z,43.60
2018-10-12T07:29:16.893Z,50.28
2018-10-12T07:31:47.082Z,55.92
2018-10-12T07:34:16.785Z,51.20
2018-10-12T07:36:46.559Z,48.23
2018-10-12T07:39:16.262Z,53.73
2018-10-12T07:41:45.839Z,47.95
2018-10-12T07:44:15.522Z,46.42
2018-10-12T07:46:45.225Z,51.33
2018-10-12T07:49:14.968Z,47.38
2018-10-12T07:51:44.640Z,57.45
2018-10-12T07:54:14.349Z,54.30
2018-10-12T07:56:44.090Z,53.58
2018-10-12T07:59:13.662Z,55.58
2018-10-12T08:01:43.659Z,56.33
2018-10-12T08:04:13.286Z,52.08
2018-10-12T08:06:43.026Z,53.13
2018-10-12T08:09:12.640Z,49.35
2018-10-12T08:11:42.379Z,55.00
2018-10-12T08:14:12.046Z,54.53
2018-10-12T08:16:41.761Z,50.35
2018-10-12T08:19:12.414Z,52.33
2018-10-12T08:21:42.134Z,54.33
2018-10-12T08:24:11.774Z,48.28
2018-10-12T08:26:41.478Z,52.67
2018-10-12T08:29:14.143Z,50.00
2018-10-12T08:31:45.529Z,54.38
2018-10-12T08:34:15.594Z,52.35
2018-10-12T08:36:45.413Z,53.02
2018-10-12T08:39:15.142Z,51.65
2018-10-12T08:41:45.051Z,55.00
2018-10-12T08:44:15.199Z,45.67
2018-10-12T08:46:45.358Z,48.63
2018-10-12T08:49:14.930Z,57.27
2018-10-12T08:51:44.661Z,47.98
2018-10-12T08:54:15.258Z,43.13
2018-10-12T08:56:45.154Z,44.93
2018-10-12T08:59:14.888Z,46.18
2018-10-12T09:01:44.764Z,46.42
2018-10-12T09:04:14.710Z,43.80
2018-10-12T09:06:44.525Z,44.65
2018-10-12T09:09:14.446Z,46.33
2018-10-12T09:11:45.378Z,44.65
2018-10-12T09:14:18.038Z,43.83
2018-10-12T09:16:47.740Z,44.18
2018-10-12T09:19:17.782Z,44.77
2018-10-12T09:21:47.578Z,43.65
2018-10-12T09:24:17.368Z,43.50
2018-10-12T09:26:47.246Z,45.48
2018-10-12T09:29:17.808Z,43.68
2018-10-12T09:31:47.713Z,44.45
2018-10-12T09:34:17.866Z,42.85
2018-10-12T09:36:47.741Z,42.40
2018-10-12T09:39:17.544Z,43.70
2018-10-12T09:41:47.631Z,42.85
2018-10-12T09:44:17.866Z,39.85
2018-10-12T09:46:48.076Z,42.58
2018-10-12T09:49:17.926Z,36.10
2018-10-12T09:51:47.630Z,33.15
2018-10-12T09:54:17.434Z,32.45
2018-10-12T09:56:52.389Z,32.13
2018-10-12T09:59:22.428Z,34.73
2018-10-12T10:01:57.356Z,34.83
2018-10-12T10:04:31.662Z,33.92
2018-10-12T10:07:06.586Z,32.23
2018-10-12T10:09:37.652Z,32.63
2018-10-12T10:12:07.452Z,32.30
2018-10-12T10:14:37.339Z,32.60
2018-10-12T10:17:07.079Z,32.90
2018-10-12T10:19:36.753Z,32.40
2018-10-12T10:22:06.508Z,31.90
2018-10-12T10:24:36.198Z,31.95
2018-10-12T10:27:05.917Z,30.82
2018-10-12T10:29:35.622Z,30.92
2018-10-12T10:32:05.322Z,31.07
2018-10-12T10:34:35.039Z,31.12
2018-10-12T10:37:04.821Z,29.87
2018-10-12T10:39:34.413Z,30.60
2018-10-12T10:42:04.294Z,28.57
2018-10-12T10:44:33.870Z,28.95
2018-10-12T10:47:03.546Z,29.10
2018-10-12T10:49:33.187Z,28.38
2018-10-12T10:52:03.889Z,28.95
2018-10-12T10:54:34.414Z,29.98
2018-10-12T10:57:05.101Z,28.62
2018-10-12T10:59:36.157Z,28.47
2018-10-12T11:02:05.822Z,29.10
2018-10-12T11:04:35.750Z,28.07
2018-10-12T11:07:06.372Z,27.82
2018-10-12T11:09:35.967Z,28.47
2018-10-12T11:12:13.197Z,27.40
2018-10-12T11:14:50.645Z,27.77
2018-10-12T11:17:25.622Z,28.07
2018-10-12T11:20:01.041Z,27.25
2018-10-12T11:22:32.827Z,26.62
2018-10-12T11:25:07.473Z,27.90
2018-10-12T11:27:37.109Z,25.90
2018-10-12T11:30:06.731Z,26.00
2018-10-12T11:32:36.599Z,26.23
2018-10-12T11:35:06.646Z,26.25
2018-10-12T11:37:37.507Z,25.35
2018-10-12T11:40:07.222Z,24.18
2018-10-12T11:43:41.029Z,27.00
2018-10-12T11:46:10.977Z,24.55
2018-10-12T11:48:40.722Z,25.05
2018-10-12T11:51:10.443Z,26.23
2018-10-12T11:53:40.479Z,24.98
2018-10-12T11:56:10.142Z,24.87
2018-10-12T11:58:40.053Z,24.18
2018-10-12T12:01:09.761Z,24.80
2018-10-12T12:03:39.598Z,25.37
2018-10-12T12:06:09.295Z,23.30
2018-10-12T12:08:38.982Z,24.00
2018-10-12T12:11:08.814Z,24.55
2018-10-12T12:13:38.486Z,24.40
2018-10-12T12:16:08.172Z,22.75
2018-10-12T12:18:37.806Z,24.02
2018-10-12T12:21:07.657Z,23.83
2018-10-12T12:23:37.446Z,23.05
2018-10-12T12:26:07.037Z,22.93
2018-10-12T12:28:36.777Z,22.75
2018-10-12T12:31:06.393Z,23.22
2018-10-12T12:33:36.070Z,22.87
2018-10-12T12:36:07.284Z,23.12
2018-10-12T12:38:36.842Z,21.87
2018-10-12T12:41:06.410Z,22.48
2018-10-12T12:43:36.046Z,22.35
2018-10-12T12:46:05.658Z,21.55
2018-10-12T12:48:35.749Z,22.52
2018-10-12T12:51:05.038Z,21.37
2018-10-12T12:53:34.840Z,22.90
2018-10-12T12:56:04.458Z,22.32
2018-10-12T12:58:34.098Z,22.00
2018-10-12T13:01:03.770Z,22.42
2018-10-12T13:03:33.491Z,21.90
2018-10-12T13:06:03.242Z,21.97
2018-10-12T13:08:33.300Z,23.12
2018-10-12T13:11:03.046Z,22.05
2018-10-12T13:13:32.735Z,22.13
2018-10-12T13:16:02.421Z,20.48
2018-10-12T13:18:32.163Z,21.60
2018-10-12T13:21:01.844Z,21.35
2018-10-12T13:23:31.525Z,21.97
2018-10-12T13:26:01.448Z,21.07
2018-10-12T13:28:30.962Z,21.77
2018-10-12T13:31:00.606Z,20.62
2018-10-12T13:33:30.281Z,20.25
2018-10-12T13:35:59.965Z,21.50
2018-10-12T13:38:29.623Z,21.33
2018-10-12T13:40:59.298Z,20.77
2018-10-12T13:43:29.070Z,20.15
2018-10-12T13:45:58.749Z,19.45
2018-10-12T13:48:28.420Z,20.70
2018-10-12T13:50:58.161Z,20.60
2018-10-12T13:53:27.834Z,20.90
2018-10-12T13:55:57.353Z,19.65
2018-10-12T13:58:26.990Z,20.35
2018-10-12T14:00:56.587Z,19.67
2018-10-12T14:03:26.161Z,19.80
2018-10-12T14:05:55.976Z,20.48
2018-10-12T14:08:25.621Z,20.40
2018-10-12T14:10:55.319Z,19.02
2018-10-12T14:13:24.954Z,20.30
2018-10-12T14:15:54.627Z,19.52
2018-10-12T14:18:24.339Z,19.10
2018-10-12T14:20:53.986Z,19.57
2018-10-12T14:23:23.649Z,19.35
2018-10-12T14:25:53.322Z,19.48
2018-10-12T14:28:23.001Z,20.17
2018-10-12T14:30:52.773Z,18.73
2018-10-12T14:33:22.451Z,18.48
2018-10-12T14:35:52.236Z,19.42
2018-10-12T14:38:21.901Z,19.62
2018-10-12T14:40:51.631Z,18.32
2018-10-12T14:43:21.621Z,18.85
2018-10-12T14:45:51.301Z,18.15
2018-10-12T14:48:20.984Z,18.12
2018-10-12T14:50:50.641Z,18.87
2018-10-12T14:53:20.383Z,18.12
2018-10-12T14:55:50.070Z,18.82
2018-10-12T14:58:19.708Z,19.82
2018-10-12T15:00:49.343Z,18.87
2018-10-12T15:03:19.162Z,18.42
2018-10-12T15:05:48.894Z,18.77
2018-10-12T15:08:18.575Z,18.57
2018-10-12T15:10:48.214Z,19.50
2018-10-12T15:13:17.916Z,18.73
2018-10-12T15:15:47.556Z,17.85
2018-10-12T15:18:17.230Z,18.90
2018-10-12T15:20:46.861Z,17.37
2018-10-12T15:23:16.532Z,18.10
2018-10-12T15:25:46.217Z,19.00
2018-10-12T15:28:15.858Z,17.98
2018-10-12T15:30:45.462Z,17.82
2018-10-12T15:33:15.135Z,17.50
2018-10-12T15:35:44.846Z,17.85
2018-10-12T15:38:14.571Z,17.62
2018-10-12T15:40:44.774Z,17.62
2018-10-12T15:43:14.959Z,18.42
2018-10-12T15:45:44.937Z,17.10
2018-10-12T15:48:14.714Z,17.25
2018-10-12T15:50:44.751Z,17.25
2018-10-12T15:53:14.454Z,16.95
2018-10-12T15:55:44.149Z,17.12
2018-10-12T15:58:13.835Z,17.17
2018-10-12T16:00:43.594Z,17.40
2018-10-12T16:03:13.262Z,16.40
2018-10-12T16:05:42.970Z,16.67
2018-10-12T16:08:12.726Z,17.10
2018-10-12T16:10:42.427Z,16.70
2018-10-12T16:13:12.098Z,16.77
2018-10-12T16:15:41.837Z,17.20
2018-10-12T16:18:11.514Z,16.82
2018-10-12T16:20:41.330Z,16.75
2018-10-12T16:23:11.073Z,16.80
2018-10-12T16:25:54.295Z,16.27
2018-10-12T16:28:24.149Z,17.32
2018-10-12T16:30:54.471Z,16.65
2018-10-12T16:33:24.366Z,16.95
2018-10-12T16:35:55.413Z,16.40
2018-10-12T16:38:25.054Z,17.20
2018-10-12T16:40:54.809Z,15.85
2018-10-12T16:43:24.482Z,16.05
2018-10-12T16:45:54.267Z,16.85
2018-10-12T16:48:24.018Z,16.15
2018-10-12T16:50:53.694Z,16.55
2018-10-12T16:53:23.370Z,15.45
2018-10-12T16:55:53.042Z,15.53
2018-10-12T16:58:22.762Z,16.93
2018-10-12T17:00:52.417Z,15.60
2018-10-12T17:03:22.187Z,15.15
2018-10-12T17:05:51.802Z,15.85
2018-10-12T17:08:21.485Z,15.65
2018-10-12T17:10:51.166Z,15.43
2018-10-12T17:13:20.857Z,15.30
2018-10-12T17:15:50.531Z,16.85
2018-10-12T17:18:20.260Z,15.75
2018-10-12T17:20:49.881Z,15.58
2018-10-12T17:23:19.518Z,15.15
2018-10-12T17:25:49.199Z,16.05
2018-10-12T17:28:18.901Z,15.85
2018-10-12T17:30:48.887Z,15.75
2018-10-12T17:33:18.567Z,17.17
2018-10-12T17:35:48.390Z,23.40
2018-10-12T17:38:18.178Z,25.90
2018-10-12T17:40:47.921Z,20.43
2018-10-12T17:43:17.643Z,20.20
2018-10-12T17:45:47.726Z,25.97
2018-10-12T17:48:17.394Z,24.45
2018-10-12T17:50:47.037Z,20.88
2018-10-12T17:53:16.717Z,21.97
2018-10-12T17:55:46.426Z,24.65
2018-10-12T17:58:16.179Z,23.70
2018-10-12T18:00:45.844Z,24.40
2018-10-12T18:03:15.493Z,24.05
2018-10-12T18:05:45.766Z,23.95
2018-10-12T18:08:15.596Z,26.27
2018-10-12T18:10:45.408Z,24.25
2018-10-12T18:13:16.163Z,23.85
2018-10-12T18:15:45.771Z,25.37
2018-10-12T18:18:16.477Z,23.95
2018-10-12T18:20:47.037Z,25.23
2018-10-12T18:23:16.995Z,23.98
2018-10-12T18:25:46.735Z,27.00
2018-10-12T18:28:16.449Z,24.05
2018-10-12T18:30:46.157Z,29.50
2018-10-12T18:33:15.812Z,26.65
2018-10-12T18:35:45.496Z,29.35
2018-10-12T18:38:16.349Z,32.85
2018-10-12T18:40:46.769Z,32.38
2018-10-12T18:43:16.717Z,31.80
2018-10-12T18:45:46.246Z,31.55
2018-10-12T18:48:16.011Z,33.45
2018-10-12T18:50:46.547Z,31.90
2018-10-12T18:53:16.598Z,36.00
2018-10-12T18:55:46.346Z,34.53
2018-10-12T18:58:16.530Z,33.45
2018-10-12T19:00:46.140Z,37.38
2018-10-12T19:03:15.923Z,37.15
2018-10-12T19:05:45.713Z,35.05
2018-10-12T19:08:15.394Z,34.55
2018-10-12T19:10:45.086Z,41.90
2018-10-12T19:13:14.621Z,48.70
2018-10-12T19:15:44.846Z,44.73
2018-10-12T19:18:15.444Z,47.83
2018-10-12T19:20:45.073Z,49.75
2018-10-12T19:23:14.966Z,54.90
2018-10-12T19:25:44.639Z,44.70
2018-10-12T19:28:14.418Z,52.08
2018-10-12T19:30:44.676Z,56.02
2018-10-12T19:33:14.519Z,49.10
2018-10-12T19:35:44.242Z,54.33
2018-10-12T19:38:13.895Z,59.00
2018-10-12T19:40:43.554Z,59.18
2018-10-12T19:43:13.294Z,47.08
2018-10-12T19:45:43.054Z,65.87
2018-10-12T19:48:12.754Z,66.90
2018-10-12T19:50:42.460Z,64.50
2018-10-12T19:53:12.069Z,70.12
2018-10-12T19:55:42.049Z,75.17
2018-10-12T19:58:11.690Z,86.85
2018-10-12T20:00:41.537Z,90.55
2018-10-12T20:03:11.513Z,93.82
2018-10-12T20:05:41.309Z,94.20
2018-10-12T20:08:11.141Z,145.68
2018-10-12T20:10:40.746Z,123.15
2018-10-12T20:13:10.449Z,131.05
2018-10-12T20:15:40.302Z,140.70
2018-10-12T20:18:09.994Z,131.75
2018-10-12T20:20:39.721Z,139.22
2018-10-12T20:23:09.550Z,142.82
2018-10-12T20:25:39.253Z,117.05
2018-10-12T20:28:08.991Z,118.28
2018-10-12T20:30:38.838Z,122.87
2018-10-12T20:33:08.538Z,110.60
2018-10-12T20:35:38.506Z,102.78
2018-10-12T20:38:09.242Z,103.75
2018-10-12T20:40:38.911Z,98.87
2018-10-12T20:43:08.585Z,101.35
2018-10-12T20:45:38.398Z,97.88
2018-10-12T20:48:08.269Z,103.12
2018-10-12T20:50:39.076Z,105.35
2018-10-12T20:53:08.825Z,95.12
2018-10-12T20:55:38.382Z,101.55
2018-10-12T20:58:12.137Z,94.83
2018-10-12T21:00:41.826Z,98.20
2018-10-12T21:03:11.535Z,103.30
2018-10-12T21:05:41.805Z,99.70
2018-10-12T21:08:11.465Z,93.52
2018-10-12T21:10:41.221Z,101.65
2018-10-12T21:13:10.941Z,99.75
2018-10-12T21:15:40.798Z,98.70
2018-10-12T21:18:10.566Z,98.00
2018-10-12T21:20:41.114Z,114.47
2018-10-12T21:23:10.965Z,127.58
2018-10-12T21:25:40.973Z,111.05
2018-10-12T21:28:10.773Z,130.07
2018-10-12T21:30:40.502Z,131.95
2018-10-12T21:33:10.242Z,136.45
2018-10-12T21:35:39.949Z,134.57
2018-10-12T21:38:09.603Z,129.93
2018-10-12T21:40:39.474Z,150.78
2018-10-12T21:43:09.193Z,130.15
2018-10-12T21:45:38.993Z,138.45
2018-10-12T21:48:08.670Z,133.35
2018-10-12T21:50:38.500Z,127.70
2018-10-12T21:53:08.232Z,129.70
2018-10-12T21:55:37.923Z,136.65
2018-10-12T21:58:07.912Z,132.78
2018-10-12T22:00:37.822Z,137.05
2018-10-12T22:03:07.537Z,142.30
2018-10-12T22:05:39.928Z,145.50
2018-10-12T22:10:47.534Z,176.00
2018-10-12T22:13:17.185Z,258.05
2018-10-12T22:15:46.755Z,252.57
2018-10-12T22:18:16.470Z,209.65
2018-10-12T22:20:46.157Z,161.37
2018-10-12T22:23:15.846Z,161.50
2018-10-12T22:25:45.577Z,168.15
2018-10-12T22:28:15.345Z,155.55
2018-10-12T22:30:45.119Z,150.30
2018-10-12T22:33:14.808Z,149.65
2018-10-12T22:35:44.393Z,156.63
2018-10-12T22:38:14.098Z,146.80
2018-10-12T22:40:43.771Z,155.00
2018-10-12T22:43:13.514Z,156.20
2018-10-12T22:45:43.223Z,160.40
2018-10-12T22:48:12.961Z,153.78
2018-10-12T22:50:42.640Z,147.70
2018-10-12T22:53:12.314Z,151.20
2018-10-12T22:55:41.989Z,152.65
2018-10-12T22:58:11.763Z,157.52
2018-10-12T23:00:41.434Z,150.82
2018-10-12T23:03:11.280Z,149.05
2018-10-12T23:05:40.985Z,150.87
2018-10-12T23:08:10.669Z,145.87
2018-10-12T23:10:40.405Z,147.55
2018-10-12T23:13:10.596Z,154.80
2018-10-12T23:15:40.329Z,145.97
2018-10-12T23:18:10.011Z,145.62
2018-10-12T23:20:39.645Z,144.47
2018-10-12T23:23:09.330Z,144.77
2018-10-12T23:25:39.038Z,148.07
2018-10-12T23:28:08.769Z,143.37
2018-10-12T23:30:38.382Z,140.20
2018-10-12T23:33:18.936Z,142.85
2018-10-12T23:35:48.646Z,141.43
2018-10-12T23:38:18.342Z,144.55
2018-10-12T23:40:47.962Z,139.82
2018-10-12T23:43:17.673Z,141.53
2018-10-12T23:45:47.274Z,140.77
2018-10-12T23:48:16.956Z,141.10
2018-10-12T23:50:46.585Z,132.67
2018-10-12T23:53:16.196Z,137.68
2018-10-12T23:55:45.853Z,136.70
2018-10-12T23:58:15.718Z,135.78
